Terminal Aerodrome Forecast
Issued by NWS Sterling, VA

Current Version | Previous Version | Text Only | Print | Product List | Glossary On
Versions: 1 2 3 4 5 6 7 8 9 10 11 12 13 14 15 16 17 18 19 20 21 22 23 24 25 26
000
FTUS41 KLWX 280842 CCA
TAFDCA
TAF COR
KDCA 280842Z 2809/2912 05009KT 4SM -DZ BR OVC004
     FM281300 07004KT P6SM BKN008 OVC015
     FM281600 09005KT P6SM BKN015
     FM281900 13004KT P6SM BKN025
     FM290400 VRB03KT 5SM BR BKN008=

USA.gov is the U.S. government's official web portal to all federal, state and local government web resources and services.